createdAt,value
2023-02-04T00:00:41.964Z,8.48
2023-02-04T00:03:10.426Z,6.88
2023-02-04T00:05:38.861Z,8.95
2023-02-04T00:08:07.518Z,7.45
2023-02-04T00:10:38.029Z,3.05
2023-02-04T00:13:06.425Z,6.43
2023-02-04T00:15:34.815Z,7.53
2023-02-04T00:18:05.720Z,6.18
2023-02-04T00:20:34.290Z,7.03
2023-02-04T00:23:03.519Z,5.35
2023-02-04T00:25:31.857Z,4.70
2023-02-04T00:28:02.757Z,10.88
2023-02-04T00:30:31.396Z,10.15
2023-02-04T00:33:00.051Z,10.98
2023-02-04T00:35:28.575Z,10.60
2023-02-04T00:37:57.619Z,5.10
2023-02-04T00:40:26.047Z,5.05
2023-02-04T00:42:54.455Z,7.38
2023-02-04T00:45:24.349Z,8.63
2023-02-04T00:47:52.685Z,4.75
2023-02-04T00:50:21.327Z,6.60
2023-02-04T00:52:49.800Z,11.27
2023-02-04T00:55:18.327Z,9.10
2023-02-04T00:57:48.127Z,13.25
2023-02-04T01:00:19.286Z,7.80
2023-02-04T01:02:49.092Z,4.07
2023-02-04T01:05:17.723Z,17.27
2023-02-04T01:07:46.136Z,9.48
2023-02-04T01:10:16.221Z,10.13
2023-02-04T01:12:45.197Z,11.15
2023-02-04T01:15:13.872Z,13.70
2023-02-04T01:17:42.836Z,8.68
2023-02-04T01:20:13.646Z,11.82
2023-02-04T01:22:42.100Z,9.82
2023-02-04T01:25:11.561Z,11.38
2023-02-04T01:27:39.902Z,13.10
2023-02-04T01:30:09.961Z,19.40
2023-02-04T01:32:38.423Z,9.10
2023-02-04T01:35:07.222Z,18.10
2023-02-04T01:37:36.986Z,12.80
2023-02-04T01:40:06.030Z,17.17
2023-02-04T01:42:34.483Z,14.48
2023-02-04T01:45:03.025Z,9.82
2023-02-04T01:47:31.411Z,11.38
2023-02-04T01:50:00.019Z,13.00
2023-02-04T01:52:39.819Z,22.38
2023-02-04T01:55:16.715Z,18.10
2023-02-04T01:57:45.704Z,18.77
2023-02-04T02:00:18.593Z,12.18
2023-02-04T02:02:50.515Z,16.05
2023-02-04T02:05:22.457Z,15.68
2023-02-04T02:07:54.319Z,18.40
2023-02-04T02:10:23.181Z,21.20
2023-02-04T02:12:51.734Z,16.67
2023-02-04T02:15:20.363Z,20.70
2023-02-04T02:17:49.024Z,16.88
2023-02-04T02:20:19.627Z,19.77
2023-02-04T02:23:01.299Z,15.32
2023-02-04T02:25:31.084Z,18.13
2023-02-04T02:28:01.943Z,27.83
2023-02-04T02:30:31.119Z,21.60
2023-02-04T02:33:00.320Z,23.25
2023-02-04T02:35:29.542Z,24.05
2023-02-04T02:37:58.642Z,20.77
2023-02-04T02:40:27.144Z,18.00
2023-02-04T02:42:57.148Z,20.60
2023-02-04T02:45:27.600Z,27.60
2023-02-04T02:47:58.570Z,23.70
2023-02-04T02:50:29.769Z,21.45
2023-02-04T02:52:59.011Z,29.60
2023-02-04T02:55:29.104Z,27.88
2023-02-04T02:57:59.525Z,24.50
2023-02-04T03:00:29.964Z,24.67
2023-02-04T03:03:02.878Z,32.17
2023-02-04T03:05:33.818Z,31.80
2023-02-04T03:08:03.038Z,32.72
2023-02-04T03:10:31.680Z,25.45
2023-02-04T03:13:02.924Z,33.75
2023-02-04T03:15:32.155Z,29.52
2023-02-04T03:18:02.165Z,32.53
2023-02-04T03:20:32.294Z,35.10
2023-02-04T03:23:01.036Z,33.80
2023-02-04T03:25:29.795Z,34.47
2023-02-04T03:27:59.870Z,30.73
2023-02-04T03:30:30.948Z,30.33
2023-02-04T03:32:59.460Z,34.67
2023-02-04T03:35:28.353Z,34.58
2023-02-04T03:37:56.781Z,36.30
2023-02-04T03:40:25.492Z,38.83
2023-02-04T03:42:53.920Z,34.47
2023-02-04T03:45:22.315Z,35.55
2023-02-04T03:47:52.146Z,36.92
2023-02-04T03:50:20.571Z,34.60
2023-02-04T03:52:51.518Z,45.13
2023-02-04T03:55:19.945Z,34.50
2023-02-04T03:57:48.405Z,43.70
2023-02-04T04:00:17.037Z,34.40
2023-02-04T04:02:45.593Z,39.05
2023-02-04T04:05:15.435Z,40.15
2023-02-04T04:07:45.163Z,35.70
2023-02-04T04:10:13.529Z,40.38
2023-02-04T04:12:41.970Z,41.92
2023-02-04T04:15:11.076Z,35.65
2023-02-04T04:17:39.524Z,39.33
2023-02-04T04:20:08.464Z,29.95
2023-02-04T04:22:38.181Z,36.20
2023-02-04T04:25:07.775Z,37.55
2023-02-04T04:27:36.240Z,40.03
2023-02-04T04:30:05.063Z,40.15
2023-02-04T04:32:33.494Z,36.72
2023-02-04T04:35:01.863Z,45.03
2023-02-04T04:37:31.058Z,36.90
2023-02-04T04:40:02.691Z,40.38
2023-02-04T04:42:31.019Z,34.85
2023-02-04T04:44:59.713Z,39.50
2023-02-04T04:47:28.920Z,34.83
2023-02-04T04:49:57.369Z,36.72
2023-02-04T04:52:25.718Z,31.35
2023-02-04T04:54:54.140Z,37.17
2023-02-04T04:57:24.056Z,33.70
2023-02-04T04:59:52.421Z,34.90
2023-02-04T05:02:20.790Z,35.28
2023-02-04T05:04:49.226Z,36.67
2023-02-04T05:07:17.590Z,31.58
2023-02-04T05:09:45.972Z,41.53
2023-02-04T05:12:14.307Z,34.85
2023-02-04T05:14:44.135Z,38.60
2023-02-04T05:17:12.657Z,40.33
2023-02-04T05:19:41.093Z,43.38
2023-02-04T05:22:09.502Z,38.90
2023-02-04T05:24:37.848Z,43.78
2023-02-04T05:27:06.313Z,48.28
2023-02-04T05:29:34.649Z,36.50
2023-02-04T05:32:04.688Z,41.85
2023-02-04T05:34:33.477Z,52.60
2023-02-04T05:37:02.597Z,46.35
2023-02-04T05:39:30.978Z,46.97
2023-02-04T05:41:59.323Z,44.10
2023-02-04T05:44:27.677Z,53.72
2023-02-04T05:46:56.084Z,50.75
2023-02-04T05:49:26.031Z,42.97
2023-02-04T05:51:54.350Z,42.15
2023-02-04T05:54:22.771Z,43.58
2023-02-04T05:56:51.851Z,45.42
2023-02-04T05:59:20.268Z,40.33
2023-02-04T06:01:48.675Z,50.00
2023-02-04T06:04:17.987Z,40.35
2023-02-04T06:06:47.978Z,45.38
2023-02-04T06:09:16.292Z,39.70
2023-02-04T06:11:44.635Z,45.35
2023-02-04T06:14:13.033Z,53.42
2023-02-04T06:16:42.450Z,38.53
2023-02-04T06:19:10.837Z,38.40
2023-02-04T06:21:39.273Z,33.88
2023-02-04T06:24:09.433Z,35.22
2023-02-04T06:26:37.911Z,33.78
2023-02-04T06:29:06.396Z,39.80
2023-02-04T06:31:34.920Z,38.58
2023-02-04T06:34:03.390Z,36.45
2023-02-04T06:36:31.805Z,40.00
2023-02-04T06:39:00.977Z,36.17
2023-02-04T06:41:30.890Z,40.05
2023-02-04T06:43:59.627Z,40.65
2023-02-04T06:46:28.114Z,40.42
2023-02-04T06:48:56.833Z,47.78
2023-02-04T06:51:25.245Z,38.50
2023-02-04T06:53:53.646Z,43.05
2023-02-04T06:56:22.040Z,44.03
2023-02-04T06:58:51.862Z,40.83
2023-02-04T07:01:20.748Z,47.40
2023-02-04T07:03:49.123Z,51.28
2023-02-04T07:06:17.454Z,47.78
2023-02-04T07:08:47.596Z,37.25
2023-02-04T07:11:16.247Z,49.00
2023-02-04T07:13:44.578Z,44.15
2023-02-04T07:16:14.429Z,42.83
2023-02-04T07:18:42.934Z,42.42
2023-02-04T07:21:11.619Z,38.88
2023-02-04T07:23:39.925Z,39.83
2023-02-04T07:26:08.414Z,47.00
2023-02-04T07:28:37.711Z,43.78
2023-02-04T07:31:06.308Z,45.90
2023-02-04T07:33:36.265Z,46.70
2023-02-04T07:36:05.501Z,43.78
2023-02-04T07:38:34.012Z,46.88
2023-02-04T07:41:03.065Z,54.67
2023-02-04T07:43:31.666Z,40.03
2023-02-04T07:46:00.109Z,42.95
2023-02-04T07:48:29.254Z,45.78
2023-02-04T07:50:59.065Z,41.97
2023-02-04T07:53:27.519Z,59.83
2023-02-04T07:55:56.008Z,62.00
2023-02-04T07:58:24.446Z,42.78
2023-02-04T08:00:52.812Z,48.97
2023-02-04T08:03:21.222Z,48.58
2023-02-04T08:05:49.699Z,50.85
2023-02-04T08:08:19.469Z,52.50
2023-02-04T08:10:47.872Z,40.25
2023-02-04T08:13:16.441Z,43.60
2023-02-04T08:15:44.857Z,45.40
2023-02-04T08:18:13.666Z,37.10
2023-02-04T08:20:42.143Z,44.38
2023-02-04T08:23:10.681Z,46.45
2023-02-04T08:25:40.831Z,35.80
2023-02-04T08:28:09.230Z,39.15
2023-02-04T08:30:37.613Z,32.30
2023-02-04T08:33:06.220Z,35.70
2023-02-04T08:35:34.587Z,30.30
2023-02-04T08:38:03.018Z,33.38
2023-02-04T08:40:31.496Z,26.58
2023-02-04T08:43:02.674Z,36.17
2023-02-04T08:45:31.074Z,28.77
2023-02-04T08:47:59.612Z,34.50
2023-02-04T08:50:31.138Z,36.25
2023-02-04T08:52:59.637Z,29.80
2023-02-04T08:55:28.883Z,40.28
2023-02-04T08:57:59.100Z,29.00
2023-02-04T09:00:29.085Z,31.70
2023-02-04T09:02:57.509Z,31.30
2023-02-04T09:05:25.953Z,28.25
2023-02-04T09:07:54.364Z,30.10
2023-02-04T09:10:22.710Z,25.50
2023-02-04T09:12:55.945Z,28.17
2023-02-04T09:15:25.426Z,34.92
2023-02-04T09:18:02.600Z,27.33
2023-02-04T09:20:31.287Z,28.20
2023-02-04T09:22:59.846Z,24.75
2023-02-04T09:25:29.223Z,23.65
2023-02-04T09:27:57.587Z,22.08
2023-02-04T09:30:26.082Z,25.45
2023-02-04T09:32:55.869Z,19.33
2023-02-04T09:35:24.306Z,23.42
2023-02-04T09:37:52.684Z,19.08
2023-02-04T09:40:21.838Z,26.85
2023-02-04T09:42:51.421Z,22.83
2023-02-04T09:45:24.228Z,20.85
2023-02-04T09:47:53.253Z,22.67
2023-02-04T09:50:26.180Z,16.83
2023-02-04T09:52:58.540Z,18.05
2023-02-04T09:55:31.554Z,26.38
2023-02-04T09:58:00.894Z,23.17
2023-02-04T10:00:32.056Z,23.10
2023-02-04T10:03:04.572Z,18.88
2023-02-04T10:05:37.291Z,22.17
2023-02-04T10:08:07.004Z,18.60
2023-02-04T10:10:35.516Z,22.08
2023-02-04T10:13:05.563Z,20.23
2023-02-04T10:15:34.713Z,18.80
2023-02-04T10:18:08.754Z,14.27
2023-02-04T10:20:38.921Z,18.67
2023-02-04T10:23:12.693Z,21.48
2023-02-04T10:25:41.191Z,17.73
2023-02-04T10:28:09.671Z,15.85
2023-02-04T10:30:43.713Z,20.25
2023-02-04T10:33:16.986Z,17.77
2023-02-04T10:35:49.133Z,21.15
2023-02-04T10:38:17.567Z,22.42
2023-02-04T10:40:47.299Z,15.35
2023-02-04T10:43:18.792Z,15.75
2023-02-04T10:45:48.541Z,12.55
2023-02-04T10:48:18.071Z,13.82
2023-02-04T10:50:49.222Z,16.77
2023-02-04T10:53:39.164Z,15.55
2023-02-04T10:56:15.845Z,16.60
2023-02-04T10:58:44.345Z,14.48
2023-02-04T11:01:13.699Z,10.50
2023-02-04T11:03:43.287Z,12.30
2023-02-04T11:06:15.268Z,14.77
2023-02-04T11:08:44.196Z,9.68
2023-02-04T11:11:18.562Z,11.35
2023-02-04T11:13:58.774Z,9.20
2023-02-04T11:16:28.663Z,9.52
2023-02-04T11:18:58.559Z,12.50
2023-02-04T11:21:42.141Z,11.68
2023-02-04T11:24:25.146Z,10.85
2023-02-04T11:27:06.864Z,16.10
2023-02-04T11:29:38.426Z,9.05
2023-02-04T11:32:27.242Z,9.63
2023-02-04T11:34:57.425Z,11.23
2023-02-04T11:37:41.224Z,13.27
2023-02-04T11:40:39.738Z,9.13
2023-02-04T11:43:14.348Z,9.10
2023-02-04T11:45:43.241Z,7.40
2023-02-04T11:48:15.594Z,11.10
2023-02-04T11:50:45.220Z,8.35
2023-02-04T11:53:15.073Z,14.23
2023-02-04T11:55:47.972Z,7.18
2023-02-04T11:58:18.645Z,9.88
2023-02-04T12:00:47.368Z,10.63
2023-02-04T12:03:25.472Z,10.10
2023-02-04T12:05:56.127Z,10.07
2023-02-04T12:08:33.519Z,10.43
2023-02-04T12:11:09.439Z,11.93
2023-02-04T12:13:52.267Z,5.82
2023-02-04T12:16:21.155Z,7.47
2023-02-04T12:18:50.134Z,12.98
2023-02-04T12:21:19.967Z,10.27
2023-02-04T12:23:50.970Z,9.07
2023-02-04T12:26:19.397Z,7.88
2023-02-04T12:28:47.787Z,8.57
2023-02-04T12:31:16.432Z,11.85
2023-02-04T12:33:44.811Z,9.98
2023-02-04T12:36:13.215Z,9.23
2023-02-04T12:38:42.049Z,9.30
2023-02-04T12:41:11.923Z,12.50
2023-02-04T12:43:40.361Z,13.13
2023-02-04T12:46:08.702Z,10.60
2023-02-04T12:48:41.033Z,13.52
2023-02-04T12:51:09.504Z,12.25
2023-02-04T12:53:37.908Z,7.75
2023-02-04T12:56:07.756Z,12.25
2023-02-04T12:58:37.484Z,12.55
2023-02-04T13:01:06.292Z,14.68
2023-02-04T13:03:34.841Z,6.18
2023-02-04T13:06:03.439Z,10.52
2023-02-04T13:08:31.932Z,19.88
2023-02-04T13:11:00.240Z,9.88
2023-02-04T13:13:29.354Z,14.45
2023-02-04T13:15:59.278Z,14.02
2023-02-04T13:18:28.703Z,9.68
2023-02-04T13:20:57.035Z,6.88
2023-02-04T13:23:25.473Z,15.70
2023-02-04T13:25:53.839Z,8.15
2023-02-04T13:28:22.160Z,12.05
2023-02-04T13:30:50.548Z,10.85
2023-02-04T13:33:20.340Z,10.57
2023-02-04T13:35:48.719Z,10.30
2023-02-04T13:38:17.094Z,7.25
2023-02-04T13:40:45.484Z,9.18
2023-02-04T13:43:13.887Z,8.43
2023-02-04T13:45:47.683Z,10.50
2023-02-04T13:48:16.822Z,15.27
2023-02-04T13:50:46.690Z,8.38
2023-02-04T13:53:15.075Z,14.20
2023-02-04T13:55:43.535Z,9.88
2023-02-04T13:58:13.131Z,10.18
2023-02-04T14:00:41.525Z,12.05
2023-02-04T14:03:09.989Z,8.05
2023-02-04T14:05:38.361Z,10.23
2023-02-04T14:08:08.162Z,10.85
2023-02-04T14:10:38.629Z,9.80
2023-02-04T14:13:08.248Z,12.35
2023-02-04T14:15:37.792Z,8.20
2023-02-04T14:18:06.391Z,9.65
2023-02-04T14:20:35.925Z,9.18
2023-02-04T14:23:05.276Z,11.13
2023-02-04T14:25:35.255Z,8.57
2023-02-04T14:28:04.165Z,6.65
2023-02-04T14:30:33.783Z,9.52
2023-02-04T14:33:03.203Z,6.35
2023-02-04T14:35:31.882Z,9.25
2023-02-04T14:38:00.722Z,7.88
2023-02-04T14:40:29.081Z,8.35
2023-02-04T14:42:58.858Z,10.60
2023-02-04T14:45:27.212Z,7.32
2023-02-04T14:47:57.077Z,8.68
2023-02-04T14:50:27.403Z,7.28
2023-02-04T14:52:56.976Z,3.40
2023-02-04T14:55:25.380Z,6.65
2023-02-04T14:57:54.072Z,8.32
2023-02-04T15:00:24.262Z,9.93
2023-02-04T15:02:52.836Z,7.35
2023-02-04T15:05:21.231Z,4.43
2023-02-04T15:07:49.598Z,11.00
2023-02-04T15:10:18.126Z,10.45
2023-02-04T15:12:46.772Z,6.40
2023-02-04T15:15:15.158Z,9.00
2023-02-04T15:17:44.911Z,9.43
2023-02-04T15:20:13.985Z,8.98
2023-02-04T15:22:42.321Z,6.88
2023-02-04T15:25:11.784Z,9.85
2023-02-04T15:27:40.513Z,7.35
2023-02-04T15:30:10.141Z,10.00
2023-02-04T15:32:38.513Z,9.77
2023-02-04T15:35:09.061Z,7.00
2023-02-04T15:37:37.462Z,10.18
2023-02-04T15:40:06.704Z,5.82
2023-02-04T15:42:35.776Z,5.55
2023-02-04T15:45:04.592Z,9.00
2023-02-04T15:47:33.012Z,7.07
2023-02-04T15:50:01.406Z,6.75
2023-02-04T15:52:31.287Z,5.63
2023-02-04T15:54:59.726Z,9.55
2023-02-04T15:57:29.142Z,7.57
2023-02-04T15:59:57.995Z,8.40
2023-02-04T16:02:26.484Z,7.53
2023-02-04T16:04:55.296Z,8.48
2023-02-04T16:07:23.726Z,5.82
2023-02-04T16:09:53.608Z,12.45
2023-02-04T16:12:21.927Z,7.38
2023-02-04T16:14:50.367Z,7.68
2023-02-04T16:17:19.181Z,9.52
2023-02-04T16:19:47.805Z,10.40
2023-02-04T16:22:16.270Z,10.70
2023-02-04T16:24:44.755Z,7.18
2023-02-04T16:27:14.597Z,8.05
2023-02-04T16:29:43.008Z,6.22
2023-02-04T16:32:11.475Z,9.07
2023-02-04T16:34:39.960Z,5.97
2023-02-04T16:37:08.612Z,11.55
2023-02-04T16:39:39.036Z,9.43
2023-02-04T16:42:09.007Z,7.82
2023-02-04T16:44:39.866Z,8.77
2023-02-04T16:47:08.901Z,11.82
2023-02-04T16:49:37.829Z,13.32
2023-02-04T16:52:06.818Z,6.45
2023-02-04T16:54:35.551Z,6.68
2023-02-04T16:57:04.249Z,6.80
2023-02-04T16:59:35.303Z,6.93
2023-02-04T17:02:05.358Z,8.57
2023-02-04T17:04:34.723Z,7.78
2023-02-04T17:07:03.621Z,6.18
2023-02-04T17:09:32.006Z,9.75
2023-02-04T17:12:00.849Z,6.28
2023-02-04T17:14:29.776Z,9.40
2023-02-04T17:16:58.103Z,10.27
2023-02-04T17:19:28.049Z,10.25
2023-02-04T17:21:56.460Z,7.60
2023-02-04T17:24:24.774Z,9.35
2023-02-04T17:26:53.185Z,8.75
2023-02-04T17:29:22.259Z,10.30
2023-02-04T17:31:52.715Z,10.18
2023-02-04T17:34:21.495Z,12.23
2023-02-04T17:36:51.283Z,9.52
2023-02-04T17:39:19.634Z,6.07
2023-02-04T17:41:47.959Z,5.65
2023-02-04T17:44:20.137Z,7.03
2023-02-04T17:46:48.986Z,8.18
2023-02-04T17:49:17.342Z,13.63
2023-02-04T17:51:45.659Z,7.05
2023-02-04T17:54:15.879Z,9.57
2023-02-04T17:56:44.282Z,7.10
2023-02-04T17:59:12.645Z,7.88
2023-02-04T18:01:42.961Z,11.93
2023-02-04T18:04:13.820Z,11.27
2023-02-04T18:06:42.291Z,6.35
2023-02-04T18:09:16.991Z,11.70
2023-02-04T18:11:46.396Z,6.03
2023-02-04T18:14:18.170Z,12.10
2023-02-04T18:16:47.351Z,11.07
2023-02-04T18:19:20.216Z,8.65
2023-02-04T18:21:49.255Z,8.90
2023-02-04T18:24:20.977Z,9.40
2023-02-04T18:26:50.965Z,15.35
2023-02-04T18:29:30.982Z,7.03
2023-02-04T18:32:01.282Z,7.50
2023-02-04T18:34:36.418Z,13.73
2023-02-04T18:37:25.212Z,7.32
2023-02-04T18:39:58.791Z,11.93
2023-02-04T18:42:28.435Z,9.15
2023-02-04T18:44:56.988Z,9.60
2023-02-04T18:47:32.643Z,12.15
2023-02-04T18:50:02.518Z,11.18
2023-02-04T18:52:38.466Z,10.90
2023-02-04T18:55:23.652Z,11.85
2023-02-04T18:57:52.052Z,10.48
2023-02-04T19:00:32.198Z,15.00
2023-02-04T19:03:03.228Z,13.20
2023-02-04T19:05:36.598Z,14.25
2023-02-04T19:08:28.298Z,12.73
2023-02-04T19:10:59.474Z,22.02
2023-02-04T19:13:39.567Z,11.70
2023-02-04T19:16:22.529Z,16.40
2023-02-04T19:18:52.182Z,14.85
2023-02-04T19:21:27.249Z,16.23
2023-02-04T19:24:00.548Z,12.98
2023-02-04T19:26:37.249Z,17.67
2023-02-04T19:29:40.472Z,13.32
2023-02-04T19:32:28.541Z,18.35
2023-02-04T19:35:00.904Z,14.02
2023-02-04T19:37:38.282Z,14.30
2023-02-04T19:40:27.625Z,16.08
2023-02-04T19:43:05.030Z,19.00
2023-02-04T19:45:35.858Z,19.88
2023-02-04T19:48:18.639Z,22.20
2023-02-04T19:50:47.819Z,17.38
2023-02-04T19:53:21.609Z,26.75
2023-02-04T19:55:52.079Z,17.50
2023-02-04T19:58:24.876Z,21.30
2023-02-04T20:00:58.214Z,18.13
2023-02-04T20:03:31.444Z,21.90
2023-02-04T20:06:07.615Z,18.85
2023-02-04T20:08:47.842Z,19.05
2023-02-04T20:11:45.198Z,24.88
2023-02-04T20:14:25.247Z,29.88
2023-02-04T20:16:57.538Z,20.60
2023-02-04T20:19:34.525Z,20.38
2023-02-04T20:22:48.731Z,28.75
2023-02-04T20:25:39.108Z,22.15
2023-02-04T20:28:37.070Z,30.10
2023-02-04T20:31:18.886Z,26.02
2023-02-04T20:33:50.613Z,26.05
2023-02-04T20:36:40.984Z,22.20
2023-02-04T20:39:34.665Z,27.67
2023-02-04T20:42:35.230Z,26.60
2023-02-04T20:45:25.054Z,26.77
2023-02-04T20:47:59.668Z,26.98
2023-02-04T20:50:38.404Z,25.13
2023-02-04T20:53:09.763Z,28.15
2023-02-04T20:55:38.181Z,28.02
2023-02-04T20:58:17.121Z,28.77
2023-02-04T21:00:48.738Z,29.13
2023-02-04T21:03:24.851Z,30.48
2023-02-04T21:05:54.299Z,31.05
2023-02-04T21:08:33.529Z,31.10
2023-02-04T21:11:02.199Z,34.03
2023-02-04T21:13:30.558Z,33.05
2023-02-04T21:15:59.617Z,34.83
2023-02-04T21:18:29.788Z,32.40
2023-02-04T21:20:58.380Z,29.17
2023-02-04T21:23:26.875Z,31.13
2023-02-04T21:25:56.775Z,38.55
2023-02-04T21:28:25.200Z,29.63
2023-02-04T21:30:53.605Z,34.30
2023-02-04T21:33:22.138Z,33.83
2023-02-04T21:35:52.024Z,32.78
2023-02-04T21:38:20.434Z,33.75
2023-02-04T21:40:48.895Z,39.13
2023-02-04T21:43:17.344Z,35.30
2023-02-04T21:45:45.684Z,36.58
2023-02-04T21:48:14.876Z,34.33
2023-02-04T21:50:43.208Z,34.80
2023-02-04T21:53:13.059Z,37.58
2023-02-04T21:55:41.700Z,34.90
2023-02-04T21:58:10.098Z,37.30
2023-02-04T22:00:38.571Z,30.80
2023-02-04T22:03:10.326Z,31.63
2023-02-04T22:05:39.036Z,33.03
2023-02-04T22:08:07.367Z,33.25
2023-02-04T22:10:37.650Z,34.72
2023-02-04T22:13:06.234Z,30.38
2023-02-04T22:15:34.911Z,30.08
2023-02-04T22:18:04.110Z,28.30
2023-02-04T22:20:32.664Z,31.75
2023-02-04T22:23:01.153Z,26.95
2023-02-04T22:25:29.496Z,27.27
2023-02-04T22:28:02.786Z,26.13
2023-02-04T22:30:31.348Z,29.38
2023-02-04T22:33:01.033Z,22.83
2023-02-04T22:35:35.295Z,24.15
2023-02-04T22:38:04.861Z,27.23
2023-02-04T22:40:33.231Z,21.02
2023-02-04T22:43:04.791Z,20.42
2023-02-04T22:45:33.531Z,24.92
2023-02-04T22:48:02.155Z,22.90
2023-02-04T22:50:30.497Z,19.10
2023-02-04T22:52:58.912Z,19.55
2023-02-04T22:55:27.411Z,18.90
2023-02-04T22:57:55.764Z,19.33
2023-02-04T23:00:25.770Z,18.75
2023-02-04T23:02:54.216Z,19.42
2023-02-04T23:05:22.670Z,21.70
2023-02-04T23:07:51.556Z,17.95
2023-02-04T23:10:20.009Z,27.73
2023-02-04T23:12:48.403Z,20.98
2023-02-04T23:15:16.929Z,16.70
2023-02-04T23:17:47.144Z,21.15
2023-02-04T23:20:15.665Z,19.70
2023-02-04T23:22:44.050Z,13.85
2023-02-04T23:25:12.655Z,19.70
2023-02-04T23:27:41.053Z,15.23
2023-02-04T23:30:10.661Z,15.90
2023-02-04T23:32:39.018Z,16.80
2023-02-04T23:35:09.074Z,15.35
2023-02-04T23:37:37.470Z,13.05
2023-02-04T23:40:07.022Z,12.88
2023-02-04T23:42:35.408Z,15.98
2023-02-04T23:45:05.158Z,11.93
2023-02-04T23:47:33.596Z,14.02
2023-02-04T23:50:02.920Z,17.83
2023-02-04T23:52:32.624Z,15.48
2023-02-04T23:55:01.217Z,20.35
2023-02-04T23:57:29.630Z,17.13
2023-02-04T23:59:58.108Z,14.50
